首页
METAR-TAF:

METAR-TAF

机场 :

Harbor Springs Municipal Airport

Harbor Springs, 密歇根州, 美国

纬度: 45-25-32N, 经度: 084-54-48W, 海拔: 209米

当前天气观测

该预报发布于12分钟前的16:16 UTC
风速6节,风向
温度 -6°C
湿度 58%
气压 1024 hPa
能見度: 16.1公里
多云层高于9000英尺

METAR: KMGN 171616Z AUTO 09006KT 10SM BKN090 M06/M13 A3023 RMK AO2 T10581140

时间: 11:28 (16:28 UTC)


TAF: 丢失

超过4000个机场的气象观测和天气预报(METAR&TAF报告)。

可查询的气象台以黄色和红色小点在地图上表示。

将鼠标移到小点上方,可查看气象台名称。

然后点击查看天气观测和预报。

如需切换地图:点击带黑十字的绿色按钮放大地图;点击带横线的绿色按钮缩小地图;或者点击绿色箭头查看邻近地区的地图。


METAR-TAF: